createdAt,value
2017-12-03T00:00:58.229Z,24.67
2017-12-03T00:03:28.128Z,26.40
2017-12-03T00:05:58.328Z,25.70
2017-12-03T00:08:28.332Z,30.33
2017-12-03T00:10:58.359Z,29.17
2017-12-03T00:13:28.362Z,23.37
2017-12-03T00:15:58.481Z,22.20
2017-12-03T00:18:28.497Z,25.50
2017-12-03T00:20:58.360Z,23.10
2017-12-03T00:23:28.477Z,23.63
2017-12-03T00:25:58.593Z,25.47
2017-12-03T00:28:28.713Z,24.23
2017-12-03T00:30:58.746Z,26.77
2017-12-03T00:33:28.967Z,23.67
2017-12-03T00:35:58.882Z,25.50
2017-12-03T00:38:28.978Z,29.90
2017-12-03T00:40:59.002Z,20.63
2017-12-03T00:43:29.126Z,24.03
2017-12-03T00:45:59.328Z,23.33
2017-12-03T00:48:29.416Z,25.27
2017-12-03T00:50:59.491Z,27.60
2017-12-03T00:53:29.335Z,26.20
2017-12-03T00:55:59.312Z,26.00
2017-12-03T00:58:29.821Z,23.20
2017-12-03T01:00:59.586Z,23.27
2017-12-03T01:03:29.890Z,26.27
2017-12-03T01:05:59.669Z,28.53
2017-12-03T01:08:29.804Z,28.00
2017-12-03T01:10:59.919Z,26.70
2017-12-03T01:13:30.114Z,22.03
2017-12-03T01:16:00.127Z,25.00
2017-12-03T01:18:30.181Z,23.00
2017-12-03T01:21:00.240Z,24.00
2017-12-03T01:23:30.081Z,23.43
2017-12-03T01:26:00.807Z,29.37
2017-12-03T01:28:30.412Z,21.53
2017-12-03T01:31:00.398Z,24.70
2017-12-03T01:33:30.509Z,21.73
2017-12-03T01:36:00.425Z,23.50
2017-12-03T01:38:30.584Z,24.53
2017-12-03T01:41:00.682Z,26.80
2017-12-03T01:43:30.848Z,21.87
2017-12-03T01:46:00.821Z,22.77
2017-12-03T01:48:30.920Z,23.40
2017-12-03T01:51:00.941Z,25.47
2017-12-03T01:53:31.231Z,24.90
2017-12-03T01:56:01.076Z,20.03
2017-12-03T01:58:31.267Z,22.33
2017-12-03T02:01:01.424Z,24.33
2017-12-03T02:03:31.570Z,20.50
2017-12-03T02:06:01.544Z,23.67
2017-12-03T02:08:31.482Z,25.07
2017-12-03T02:11:01.757Z,20.77
2017-12-03T02:13:31.732Z,25.77
2017-12-03T02:16:01.869Z,20.37
2017-12-03T02:18:31.903Z,21.80
2017-12-03T02:21:02.090Z,23.53
2017-12-03T02:23:32.048Z,21.67
2017-12-03T02:26:02.089Z,22.00
2017-12-03T02:28:32.250Z,26.20
2017-12-03T02:31:02.412Z,26.00
2017-12-03T02:33:32.412Z,24.30
2017-12-03T02:36:02.362Z,22.30
2017-12-03T02:38:32.560Z,19.53
2017-12-03T02:41:02.586Z,19.33
2017-12-03T02:43:32.614Z,20.63
2017-12-03T02:46:02.713Z,18.23
2017-12-03T02:48:32.830Z,19.63
2017-12-03T02:51:02.811Z,20.83
2017-12-03T02:53:32.965Z,18.07
2017-12-03T02:56:03.213Z,19.50
2017-12-03T02:58:32.999Z,19.73
2017-12-03T03:01:03.251Z,20.23
2017-12-03T03:03:33.285Z,20.83
2017-12-03T03:06:03.378Z,21.47
2017-12-03T03:08:33.354Z,22.37
2017-12-03T03:11:03.511Z,23.43
2017-12-03T03:13:33.658Z,23.13
2017-12-03T03:16:03.685Z,22.73
2017-12-03T03:18:33.828Z,21.50
2017-12-03T03:21:03.777Z,22.10
2017-12-03T03:23:33.786Z,20.50
2017-12-03T03:26:03.955Z,18.83
2017-12-03T03:28:33.980Z,18.73
2017-12-03T03:31:04.206Z,21.43
2017-12-03T03:33:34.247Z,15.17
2017-12-03T03:36:04.250Z,16.13
2017-12-03T03:38:34.316Z,17.27
2017-12-03T03:41:04.389Z,17.67
2017-12-03T03:43:34.458Z,17.40
2017-12-03T03:46:04.702Z,17.67
2017-12-03T03:48:34.684Z,20.03
2017-12-03T03:51:04.624Z,17.13
2017-12-03T03:53:34.726Z,21.50
2017-12-03T03:56:04.828Z,20.17
2017-12-03T03:58:35.068Z,20.03
2017-12-03T04:01:05.087Z,17.00
2017-12-03T04:03:35.126Z,20.03
2017-12-03T04:06:05.207Z,20.37
2017-12-03T04:08:35.306Z,17.93
2017-12-03T04:11:05.489Z,18.53
2017-12-03T04:13:35.339Z,19.13
2017-12-03T04:16:05.483Z,17.67
2017-12-03T04:18:35.430Z,17.30
2017-12-03T04:21:05.425Z,14.63
2017-12-03T04:23:35.461Z,18.10
2017-12-03T04:26:05.724Z,19.70
2017-12-03T04:28:35.825Z,15.87
2017-12-03T04:31:05.689Z,17.77
2017-12-03T04:33:35.874Z,17.33
2017-12-03T04:36:05.654Z,16.43
2017-12-03T04:38:35.858Z,16.83
2017-12-03T04:41:05.866Z,18.57
2017-12-03T04:43:35.973Z,18.43
2017-12-03T04:46:06.197Z,16.70
2017-12-03T04:48:36.135Z,18.70
2017-12-03T04:51:06.116Z,16.70
2017-12-03T04:53:36.276Z,16.87
2017-12-03T04:56:06.291Z,17.83
2017-12-03T04:58:36.285Z,19.23
2017-12-03T05:01:06.538Z,16.13
2017-12-03T05:03:36.614Z,18.03
2017-12-03T05:06:06.396Z,17.90
2017-12-03T05:08:36.605Z,18.07
2017-12-03T05:11:06.735Z,19.43
2017-12-03T05:13:36.916Z,19.80
2017-12-03T05:16:06.882Z,19.77
2017-12-03T05:18:36.982Z,17.97
2017-12-03T05:21:07.033Z,18.63
2017-12-03T05:23:36.985Z,20.97
2017-12-03T05:26:07.080Z,15.43
2017-12-03T05:28:37.211Z,21.40
2017-12-03T05:31:07.308Z,19.40
2017-12-03T05:33:37.443Z,20.17
2017-12-03T05:36:07.262Z,19.53
2017-12-03T05:38:37.461Z,21.43
2017-12-03T05:41:07.430Z,18.57
2017-12-03T05:43:37.453Z,22.23
2017-12-03T05:46:07.643Z,18.73
2017-12-03T05:48:37.836Z,18.27
2017-12-03T05:51:07.548Z,20.87
2017-12-03T05:53:37.707Z,20.70
2017-12-03T05:56:07.712Z,21.37
2017-12-03T05:58:37.783Z,22.30
2017-12-03T06:01:07.843Z,23.33
2017-12-03T06:03:38.375Z,22.83
2017-12-03T06:06:08.215Z,21.90
2017-12-03T06:08:38.368Z,23.20
2017-12-03T06:11:08.244Z,23.30
2017-12-03T06:13:38.381Z,21.80
2017-12-03T06:16:08.579Z,21.33
2017-12-03T06:18:38.740Z,22.23
2017-12-03T06:21:08.420Z,20.40
2017-12-03T06:23:38.513Z,20.83
2017-12-03T06:26:08.656Z,22.40
2017-12-03T06:28:38.777Z,22.60
2017-12-03T06:31:08.978Z,23.50
2017-12-03T06:33:39.038Z,21.00
2017-12-03T06:36:09.138Z,20.33
2017-12-03T06:38:38.919Z,21.43
2017-12-03T06:41:09.177Z,22.40
2017-12-03T06:43:39.286Z,19.47
2017-12-03T06:46:09.277Z,21.33
2017-12-03T06:48:39.446Z,20.83
2017-12-03T06:51:09.515Z,18.93
2017-12-03T06:53:39.525Z,18.20
2017-12-03T06:56:09.641Z,22.50
2017-12-03T06:58:39.859Z,18.70
2017-12-03T07:01:09.899Z,17.20
2017-12-03T07:03:40.048Z,19.07
2017-12-03T07:06:10.062Z,17.97
2017-12-03T07:08:40.219Z,17.77
2017-12-03T07:11:10.213Z,20.97
2017-12-03T07:13:40.422Z,20.43
2017-12-03T07:16:10.797Z,19.27
2017-12-03T07:18:40.534Z,18.03
2017-12-03T07:21:10.619Z,19.70
2017-12-03T07:23:40.626Z,20.17
2017-12-03T07:26:10.693Z,18.80
2017-12-03T07:28:40.785Z,19.03
2017-12-03T07:31:10.904Z,19.20
2017-12-03T07:33:41.109Z,17.87
2017-12-03T07:36:11.065Z,20.93
2017-12-03T07:38:41.112Z,21.03
2017-12-03T07:41:11.247Z,21.80
2017-12-03T07:43:41.384Z,19.57
2017-12-03T07:46:11.308Z,23.20
2017-12-03T07:48:41.449Z,20.40
2017-12-03T07:51:11.453Z,18.57
2017-12-03T07:53:41.466Z,20.37
2017-12-03T07:56:11.617Z,18.73
2017-12-03T07:58:41.856Z,20.27
2017-12-03T08:01:11.878Z,18.70
2017-12-03T08:03:42.012Z,20.20
2017-12-03T08:06:11.858Z,19.87
2017-12-03T08:08:42.001Z,20.23
2017-12-03T08:11:12.008Z,23.30
2017-12-03T08:13:42.161Z,20.20
2017-12-03T08:16:12.128Z,20.60
2017-12-03T08:18:42.266Z,19.83
2017-12-03T08:21:12.348Z,19.53
2017-12-03T08:23:42.502Z,20.33
2017-12-03T08:26:12.553Z,21.07
2017-12-03T08:28:42.671Z,22.40
2017-12-03T08:31:12.624Z,19.57
2017-12-03T08:33:42.656Z,21.73
2017-12-03T08:36:12.587Z,19.60
2017-12-03T08:38:42.714Z,21.13
2017-12-03T08:41:12.854Z,19.33
2017-12-03T08:43:42.983Z,19.90
2017-12-03T08:46:12.969Z,20.40
2017-12-03T08:48:43.191Z,22.07
2017-12-03T08:51:13.020Z,25.27
2017-12-03T08:53:43.005Z,21.13
2017-12-03T08:56:13.016Z,22.87
2017-12-03T08:58:43.204Z,22.90
2017-12-03T09:01:13.324Z,25.27
2017-12-03T09:03:43.410Z,26.50
2017-12-03T09:06:13.406Z,25.47
2017-12-03T09:08:43.328Z,27.57
2017-12-03T09:11:13.569Z,29.60
2017-12-03T09:13:43.760Z,24.43
2017-12-03T09:16:13.685Z,23.87
2017-12-03T09:18:43.689Z,27.70
2017-12-03T09:21:13.627Z,22.50
2017-12-03T09:23:43.969Z,29.83
2017-12-03T09:26:13.776Z,23.83
2017-12-03T09:28:43.981Z,25.23
2017-12-03T09:31:13.991Z,26.13
2017-12-03T09:33:44.269Z,28.67
2017-12-03T09:36:14.216Z,30.27
2017-12-03T09:38:44.496Z,26.57
2017-12-03T09:41:14.753Z,33.80
2017-12-03T09:43:44.598Z,26.20
2017-12-03T09:46:14.789Z,28.93
2017-12-03T09:48:45.161Z,28.60
2017-12-03T09:51:14.947Z,36.97
2017-12-03T09:53:44.930Z,26.73
2017-12-03T09:56:14.805Z,31.50
2017-12-03T09:58:44.913Z,26.13
2017-12-03T10:01:14.966Z,26.03
2017-12-03T10:03:45.032Z,27.50
2017-12-03T10:06:15.126Z,29.77
2017-12-03T10:08:45.238Z,27.57
2017-12-03T10:11:15.292Z,26.93
2017-12-03T10:13:45.423Z,30.73
2017-12-03T10:16:15.566Z,27.33
2017-12-03T10:18:45.582Z,27.30
2017-12-03T10:21:15.633Z,30.30
2017-12-03T10:23:45.660Z,26.73
2017-12-03T10:26:15.769Z,27.87
2017-12-03T10:28:45.889Z,26.17
2017-12-03T10:31:15.876Z,26.17
2017-12-03T10:33:46.059Z,27.53
2017-12-03T10:36:15.933Z,27.40
2017-12-03T10:38:46.132Z,26.23
2017-12-03T10:41:17.006Z,27.10
2017-12-03T10:43:46.646Z,32.50
2017-12-03T10:46:16.846Z,31.60
2017-12-03T10:48:46.802Z,29.50
2017-12-03T10:51:18.712Z,27.40
2017-12-03T10:53:48.259Z,33.33
2017-12-03T10:56:17.943Z,28.97
2017-12-03T10:58:47.690Z,32.63
2017-12-03T11:01:17.263Z,26.07
2017-12-03T11:03:47.279Z,27.50
2017-12-03T11:06:17.223Z,28.60
2017-12-03T11:08:47.361Z,29.23
2017-12-03T11:11:17.341Z,27.50
2017-12-03T11:13:47.517Z,30.87
2017-12-03T11:16:17.813Z,29.30
2017-12-03T11:18:47.682Z,30.33
2017-12-03T11:21:17.894Z,31.03
2017-12-03T11:23:47.793Z,28.33
2017-12-03T11:26:17.946Z,29.60
2017-12-03T11:28:48.112Z,30.83
2017-12-03T11:31:18.073Z,30.60
2017-12-03T11:33:48.138Z,31.97
2017-12-03T11:36:18.209Z,29.57
2017-12-03T11:38:48.415Z,30.87
2017-12-03T11:41:18.350Z,25.77
2017-12-03T11:43:48.310Z,27.43
2017-12-03T11:46:18.423Z,26.33
2017-12-03T11:48:48.444Z,27.70
2017-12-03T11:51:18.383Z,29.40
2017-12-03T11:53:48.252Z,29.53
2017-12-03T11:56:18.760Z,26.67
2017-12-03T11:58:48.606Z,28.67
2017-12-03T12:01:18.685Z,32.27
2017-12-03T12:03:48.550Z,29.97
2017-12-03T12:06:19.035Z,28.30
2017-12-03T12:08:48.741Z,30.90
2017-12-03T12:11:18.889Z,34.93
2017-12-03T12:13:48.812Z,31.03
2017-12-03T12:16:18.904Z,35.07
2017-12-03T12:18:48.746Z,31.60
2017-12-03T12:21:18.790Z,30.50
2017-12-03T12:23:49.013Z,36.23
2017-12-03T12:26:19.030Z,29.17
2017-12-03T12:28:48.947Z,29.43
2017-12-03T12:31:19.174Z,30.27
2017-12-03T12:33:50.464Z,26.53
2017-12-03T12:36:20.121Z,30.37
2017-12-03T12:38:49.793Z,31.53
2017-12-03T12:41:19.436Z,31.77
2017-12-03T12:43:49.484Z,26.60
2017-12-03T12:46:20.836Z,26.67
2017-12-03T12:48:50.995Z,29.40
2017-12-03T12:51:21.150Z,31.53
2017-12-03T12:53:51.520Z,28.13
2017-12-03T12:56:22.120Z,29.67
2017-12-03T12:58:52.340Z,27.43
2017-12-03T13:01:22.130Z,27.80
2017-12-03T13:03:52.145Z,26.60
2017-12-03T13:06:22.398Z,29.40
2017-12-03T13:08:54.254Z,28.27
2017-12-03T13:11:26.180Z,29.73
2017-12-03T13:13:57.057Z,30.50
2017-12-03T13:16:29.291Z,32.83
2017-12-03T13:19:00.913Z,31.70
2017-12-03T13:21:31.301Z,32.70
2017-12-03T13:24:02.075Z,28.17
2017-12-03T13:26:32.295Z,28.60
2017-12-03T13:29:02.163Z,27.93
2017-12-03T13:31:32.907Z,29.33
2017-12-03T13:34:03.108Z,27.27
2017-12-03T13:36:32.797Z,28.60
2017-12-03T13:39:03.322Z,29.80
2017-12-03T13:41:33.488Z,29.53
2017-12-03T13:44:04.595Z,29.50
2017-12-03T13:46:35.657Z,28.67
2017-12-03T13:49:05.874Z,27.10
2017-12-03T13:51:36.002Z,25.93
2017-12-03T13:54:06.951Z,31.90
2017-12-03T13:56:36.664Z,30.70
2017-12-03T13:59:06.664Z,28.57
2017-12-03T14:01:36.270Z,26.60
2017-12-03T14:04:05.895Z,25.80
2017-12-03T14:06:36.064Z,24.77
2017-12-03T14:09:06.191Z,25.50
2017-12-03T14:11:37.478Z,29.97
2017-12-03T14:14:08.825Z,27.77
2017-12-03T14:16:40.757Z,29.37
2017-12-03T14:19:12.855Z,28.33
2017-12-03T14:21:44.131Z,27.57
2017-12-03T14:24:15.942Z,27.47
2017-12-03T14:26:47.903Z,28.80
2017-12-03T14:29:18.002Z,26.73
2017-12-03T14:31:50.474Z,29.30
2017-12-03T14:34:21.954Z,30.07
2017-12-03T14:36:53.324Z,28.27
2017-12-03T14:39:24.039Z,26.93
2017-12-03T14:41:55.456Z,24.70
2017-12-03T14:44:26.859Z,27.53
2017-12-03T14:46:58.431Z,31.63
2017-12-03T14:49:29.395Z,24.67
2017-12-03T14:52:00.810Z,29.53
2017-12-03T14:54:32.387Z,31.47
2017-12-03T14:57:02.457Z,27.33
2017-12-03T14:59:32.387Z,28.13
2017-12-03T15:02:02.515Z,31.03
2017-12-03T15:04:32.960Z,25.20
2017-12-03T15:07:04.178Z,28.83
2017-12-03T15:09:35.934Z,31.40
2017-12-03T15:12:07.183Z,28.97
2017-12-03T15:14:37.520Z,29.13
2017-12-03T15:17:08.222Z,26.93
2017-12-03T15:19:38.359Z,29.50
2017-12-03T15:22:09.546Z,29.37
2017-12-03T15:24:40.448Z,35.90
2017-12-03T15:27:10.772Z,39.03
2017-12-03T15:29:40.996Z,31.67
2017-12-03T15:32:11.933Z,31.80
2017-12-03T15:34:43.173Z,32.10
2017-12-03T15:37:13.403Z,33.17
2017-12-03T15:39:43.603Z,32.00
2017-12-03T15:42:14.010Z,35.13
2017-12-03T15:44:43.797Z,34.20
2017-12-03T15:47:13.673Z,34.30
2017-12-03T15:49:43.337Z,32.00
2017-12-03T15:52:13.198Z,34.07
2017-12-03T15:54:43.621Z,30.93
2017-12-03T15:57:14.388Z,37.63
2017-12-03T15:59:44.090Z,34.87
2017-12-03T16:02:13.884Z,39.00
2017-12-03T16:04:44.310Z,31.67
2017-12-03T16:07:14.266Z,32.47
2017-12-03T16:09:44.874Z,42.57
2017-12-03T16:12:15.610Z,33.57
2017-12-03T16:14:47.729Z,37.73
2017-12-03T16:17:19.089Z,38.90
2017-12-03T16:19:51.290Z,35.63
2017-12-03T16:22:23.003Z,37.27
2017-12-03T16:24:59.092Z,31.67
2017-12-03T16:27:29.774Z,35.37
2017-12-03T16:29:59.968Z,37.53
2017-12-03T16:32:32.078Z,36.20
2017-12-03T16:35:04.212Z,37.57
2017-12-03T16:37:39.216Z,33.40
2017-12-03T16:40:12.269Z,40.80
2017-12-03T16:42:44.838Z,37.90
2017-12-03T16:45:15.003Z,40.10
2017-12-03T16:47:46.490Z,34.80
2017-12-03T16:50:18.586Z,35.93
2017-12-03T16:52:50.435Z,38.73
2017-12-03T16:55:21.665Z,37.87
2017-12-03T16:57:52.940Z,37.50
2017-12-03T17:00:25.043Z,37.17
2017-12-03T17:02:56.620Z,36.03
2017-12-03T17:05:29.056Z,44.00
2017-12-03T17:08:01.067Z,37.47
2017-12-03T17:10:33.429Z,41.80
2017-12-03T17:13:05.412Z,35.23
2017-12-03T17:15:37.716Z,37.63
2017-12-03T17:18:09.361Z,34.27
2017-12-03T17:20:41.502Z,33.97
2017-12-03T17:23:14.355Z,39.10
2017-12-03T17:25:46.358Z,37.83
2017-12-03T17:28:18.037Z,35.67
2017-12-03T17:30:49.546Z,37.17
2017-12-03T17:33:21.605Z,35.63
2017-12-03T17:35:53.012Z,40.13
2017-12-03T17:38:24.612Z,41.70
2017-12-03T17:40:56.706Z,37.17
2017-12-03T17:43:28.245Z,40.20
2017-12-03T17:45:59.916Z,38.03
2017-12-03T17:48:31.972Z,39.77
2017-12-03T17:51:03.429Z,33.80
2017-12-03T17:53:35.116Z,34.17
2017-12-03T17:56:07.061Z,45.33
2017-12-03T17:58:38.483Z,37.53
2017-12-03T18:01:10.258Z,39.37
2017-12-03T18:03:42.999Z,37.53
2017-12-03T18:06:14.785Z,38.27
2017-12-03T18:08:46.340Z,39.97
2017-12-03T18:11:17.779Z,43.17
2017-12-03T18:13:49.246Z,36.37
2017-12-03T18:16:20.477Z,40.03
2017-12-03T18:18:52.448Z,37.30
2017-12-03T18:21:24.689Z,34.50
2017-12-03T18:23:56.831Z,39.10
2017-12-03T18:26:28.603Z,37.17
2017-12-03T18:42:01.134Z,42.10
2017-12-03T18:44:33.174Z,39.97
2017-12-03T18:47:04.624Z,45.93
2017-12-03T18:49:36.200Z,41.00
2017-12-03T18:52:09.062Z,43.77
2017-12-03T18:54:41.288Z,44.60
2017-12-03T18:57:13.315Z,40.23
2017-12-03T18:59:44.798Z,46.37
2017-12-03T19:02:16.587Z,39.27
2017-12-03T19:04:49.002Z,49.43
2017-12-03T19:07:20.718Z,47.77
2017-12-03T19:09:52.378Z,45.70
2017-12-03T19:12:23.762Z,44.40
2017-12-03T19:14:54.889Z,45.53
2017-12-03T19:17:26.712Z,42.10
2017-12-03T19:19:59.028Z,40.93
2017-12-03T19:22:30.365Z,42.00
2017-12-03T19:25:01.818Z,43.87
2017-12-03T19:27:33.757Z,45.70
2017-12-03T19:30:05.432Z,41.57
2017-12-03T19:32:37.005Z,40.53
2017-12-03T19:35:09.129Z,45.83
2017-12-03T19:37:41.771Z,41.00
2017-12-03T19:40:13.371Z,40.70
2017-12-03T19:42:45.019Z,40.10
2017-12-03T19:45:16.470Z,38.77
2017-12-03T19:47:48.734Z,39.50
2017-12-03T19:50:20.454Z,42.37
2017-12-03T19:52:53.252Z,38.27
2017-12-03T19:55:25.371Z,39.90
2017-12-03T20:10:57.694Z,34.60
2017-12-03T20:13:30.189Z,37.60
2017-12-03T20:16:04.746Z,37.20
2017-12-03T20:18:40.756Z,37.67
2017-12-03T20:21:12.778Z,36.33
2017-12-03T20:23:45.293Z,37.73
2017-12-03T20:26:16.972Z,37.40
2017-12-03T20:28:49.645Z,38.57
2017-12-03T20:31:21.689Z,41.27
2017-12-03T20:33:53.169Z,32.40
2017-12-03T20:36:24.831Z,36.97
2017-12-03T20:38:56.810Z,35.80
2017-12-03T20:41:29.812Z,38.10
2017-12-03T20:44:01.834Z,35.90
2017-12-03T20:46:33.532Z,38.00
2017-12-03T20:49:05.807Z,40.70
2017-12-03T20:51:37.130Z,38.70
2017-12-03T20:54:11.050Z,38.07
2017-12-03T20:56:43.070Z,36.97
2017-12-03T20:59:15.068Z,37.03
2017-12-03T21:01:47.374Z,39.23
2017-12-03T21:04:20.280Z,39.63
2017-12-03T21:06:52.021Z,38.00
2017-12-03T21:09:24.255Z,37.97
2017-12-03T21:11:56.323Z,36.07
2017-12-03T21:14:27.484Z,33.97
2017-12-03T21:17:00.224Z,36.63
2017-12-03T21:19:32.464Z,35.07
2017-12-03T21:22:03.937Z,36.33
2017-12-03T21:24:35.496Z,33.43
2017-12-03T21:27:07.619Z,35.07
2017-12-03T21:29:39.190Z,37.73
2017-12-03T21:32:10.787Z,32.77
2017-12-03T21:34:42.876Z,36.63
2017-12-03T21:37:16.024Z,32.23
2017-12-03T21:39:47.962Z,35.07
2017-12-03T21:42:19.729Z,31.80
2017-12-03T21:44:50.983Z,32.83
2017-12-03T21:47:23.336Z,34.43
2017-12-03T21:49:56.196Z,32.33
2017-12-03T21:52:29.209Z,33.77
2017-12-03T21:55:01.157Z,35.70
2017-12-03T21:57:33.172Z,33.60
2017-12-03T22:00:04.413Z,33.43
2017-12-03T22:02:36.364Z,36.60
2017-12-03T22:05:08.875Z,32.47
2017-12-03T22:07:41.908Z,36.80
2017-12-03T22:10:15.455Z,34.80
2017-12-03T22:12:47.025Z,32.07
2017-12-03T22:15:20.553Z,33.50
2017-12-03T22:17:53.005Z,32.33
2017-12-03T22:20:23.198Z,33.43
2017-12-03T22:22:53.018Z,38.23
2017-12-03T22:25:22.725Z,32.07
2017-12-03T22:27:53.786Z,37.10
2017-12-03T22:30:23.346Z,31.67
2017-12-03T22:32:53.226Z,35.03
2017-12-03T22:35:23.249Z,36.83
2017-12-03T22:37:53.175Z,33.43
2017-12-03T22:40:23.225Z,36.00
2017-12-03T22:42:53.372Z,33.57
2017-12-03T22:45:23.381Z,31.13
2017-12-03T22:47:53.638Z,32.10
2017-12-03T22:50:23.786Z,31.30
2017-12-03T22:52:53.916Z,29.70
2017-12-03T22:55:24.039Z,32.43
2017-12-03T22:57:54.489Z,34.20
2017-12-03T23:00:30.515Z,36.23
2017-12-03T23:03:00.130Z,32.97
2017-12-03T23:05:29.720Z,35.20
2017-12-03T23:07:59.697Z,31.67
2017-12-03T23:10:29.613Z,35.17
2017-12-03T23:12:59.654Z,34.37
2017-12-03T23:15:29.889Z,34.60
2017-12-03T23:17:59.895Z,39.13
2017-12-03T23:20:29.873Z,32.17
2017-12-03T23:23:00.054Z,34.77
2017-12-03T23:25:29.982Z,34.30
2017-12-03T23:28:00.096Z,32.03
2017-12-03T23:30:30.079Z,36.17
2017-12-03T23:33:00.058Z,35.20
2017-12-03T23:35:30.175Z,31.93
2017-12-03T23:38:00.274Z,36.70
2017-12-03T23:40:30.301Z,37.83
2017-12-03T23:43:00.349Z,41.83
2017-12-03T23:45:30.265Z,34.27
2017-12-03T23:48:00.440Z,40.83
2017-12-03T23:50:30.431Z,35.47
2017-12-03T23:53:00.430Z,38.10
2017-12-03T23:55:30.605Z,36.87
2017-12-03T23:58:00.434Z,41.63
